Chuckey, TN (37641)

2:24 AM EDT on October 31, 2014 (GMT -0400)
Old Jonesboro Rd | Change Station
CLOSE
Current Station
Personal Weather Station
Location: Chuckey, TN
Elevation: 1365 ft
Nearby Weather Stations
Active Advisory: Winter Storm Warning

Elev 1365 ft 36.16 °N, 82.69 °W | Updated 41 seconds ago

Clear
Clear
34.1 °F
Feels Like 34 °F
N
0.0
Wind Variable Wind from North
Gusts 0.0 mph

Today
High -- | Low -- °F
--% Chance of Precip.
Yesterday
High -- | Low -- °F
Precip. -- in
7:52 AM 6:35 PM
First Quarter, 52% visible
Pressure 29.98 in
Visibility 10.0 miles
Clouds Few 3000 ft
Scattered Clouds 25000 ft
Windchill 34 °F
Dew Point 29 °F
Humidity 81%
Rainfall 0.00 in
Snow Depth Not available.
UV 0 out of 12
Pollen .20 out of 12
Air Quality Not available.
Flu Activity Not available.
METAR KTRI 310553Z 00000KT 10SM FEW030 SCT250 03/03 A3000 RMK AO2 SLP151 T00330028 10083 20028 58003

More Conditions Fewer Conditions

Pressure 29.98 in
Visibility 10.0 miles
Clouds Few 3000 ft
Scattered Clouds 25000 ft
Windchill 34 °F
Dew Point 29 °F
Humidity 81%
Rainfall 0.00 in
Snow Depth Not available.
UV 0 out of 12
Pollen .20 out of 12
Air Quality Not available.
Flu Activity Not available.
METAR KTRI 310553Z 00000KT 10SM FEW030 SCT250 03/03 A3000 RMK AO2 SLP151 T00330028 10083 20028 58003

More Conditions Fewer Conditions

10-Day Weather Forecast

Almanac

Astronomy

Oct. 31, 2014 Rise Set
Actual Time
Civil Twilight
Nautical Twilight
Astronomical Twilight
Moon
Length of Visible Light
Length of Day
Tomorrow will be .
, % of the Moon is Illuminated

Today's Extremes

State Highs State Lows

Community

WunderPhotos

Upload Photos

1,766,571 photos uploaded!

WunderBlogs® & News

Nearby

Air Quality

  Air Quality AQ Index Pollutant
Not available.

Snow Depth

Station Depth Elevation

Earthquake Activity

City Distance Mag. Time & Date
Minimum magnitude displayed is 2.5.

Coastal Water Temperatures

Place Temperature

Nearby Weather Stations